createdAt,value
2018-05-13T00:00:26.493Z,1002.54
2018-05-13T00:01:26.479Z,1002.53
2018-05-13T00:02:26.471Z,1002.52
2018-05-13T00:03:26.461Z,1002.5
2018-05-13T00:04:26.449Z,1002.52
2018-05-13T00:05:26.436Z,1002.5
2018-05-13T00:06:26.428Z,1002.48
2018-05-13T00:07:26.414Z,1002.46
2018-05-13T00:08:26.401Z,1002.46
2018-05-13T00:09:26.599Z,1002.44
2018-05-13T00:10:26.379Z,1002.48
2018-05-13T00:11:26.378Z,1002.46
2018-05-13T00:12:26.357Z,1002.46
2018-05-13T00:13:26.348Z,1002.45
2018-05-13T00:14:26.332Z,1002.41
2018-05-13T00:15:26.323Z,1002.42
2018-05-13T00:16:26.311Z,1002.39
2018-05-13T00:17:26.300Z,1002.4
2018-05-13T00:18:26.287Z,1002.42
2018-05-13T00:19:26.278Z,1002.42
2018-05-13T00:20:26.266Z,1002.46
2018-05-13T00:21:26.256Z,1002.46
2018-05-13T00:22:26.244Z,1002.42
2018-05-13T00:23:26.232Z,1002.45
2018-05-13T00:24:26.223Z,1002.47
2018-05-13T00:25:26.209Z,1002.42
2018-05-13T00:26:26.199Z,1002.46
2018-05-13T00:27:26.188Z,1002.43
2018-05-13T00:28:26.176Z,1002.43
2018-05-13T00:29:26.164Z,1002.45
2018-05-13T00:30:26.156Z,1002.43
2018-05-13T00:31:26.140Z,1002.41
2018-05-13T00:32:26.132Z,1002.41
2018-05-13T00:33:26.117Z,1002.43
2018-05-13T00:34:26.106Z,1002.42
2018-05-13T00:35:26.096Z,1002.39
2018-05-13T00:36:26.085Z,1002.4
2018-05-13T00:37:26.074Z,1002.38
2018-05-13T00:38:26.062Z,1002.38
2018-05-13T00:39:26.050Z,1002.37
2018-05-13T00:40:26.039Z,1002.4
2018-05-13T00:41:26.028Z,1002.37
2018-05-13T00:42:26.017Z,1002.39
2018-05-13T00:43:26.004Z,1002.36
2018-05-13T00:44:25.992Z,1002.39
2018-05-13T00:45:25.985Z,1002.39
2018-05-13T00:46:25.969Z,1002.39
2018-05-13T00:47:25.960Z,1002.38
2018-05-13T00:48:25.950Z,1002.34
2018-05-13T00:49:25.936Z,1002.37
2018-05-13T00:50:25.924Z,1002.37
2018-05-13T00:51:25.912Z,1002.34
2018-05-13T00:52:25.903Z,1002.36
2018-05-13T00:53:25.891Z,1002.32
2018-05-13T00:54:25.879Z,1002.34
2018-05-13T00:55:25.866Z,1002.33
2018-05-13T00:56:25.856Z,1002.31
2018-05-13T00:57:25.843Z,1002.3
2018-05-13T00:58:25.833Z,1002.3
2018-05-13T00:59:25.820Z,1002.33
2018-05-13T01:00:25.807Z,1002.33
2018-05-13T01:01:25.795Z,1002.27
2018-05-13T01:02:25.786Z,1002.29
2018-05-13T01:03:25.777Z,1002.28
2018-05-13T01:04:25.764Z,1002.29
2018-05-13T01:05:25.749Z,1002.31
2018-05-13T01:06:25.738Z,1002.31
2018-05-13T01:07:25.730Z,1002.27
2018-05-13T01:08:25.716Z,1002.29
2018-05-13T01:09:25.720Z,1002.26
2018-05-13T01:10:25.692Z,1002.23
2018-05-13T01:11:25.691Z,1002.25
2018-05-13T01:12:25.669Z,1002.26
2018-05-13T01:13:25.664Z,1002.24
2018-05-13T01:14:25.645Z,1002.19
2018-05-13T01:15:25.635Z,1002.23
2018-05-13T01:16:25.625Z,1002.21
2018-05-13T01:17:25.611Z,1002.18
2018-05-13T01:18:25.601Z,1002.18
2018-05-13T01:19:25.594Z,1002.19
2018-05-13T01:20:25.580Z,1002.18
2018-05-13T01:21:25.563Z,1002.19
2018-05-13T01:22:25.553Z,1002.2
2018-05-13T01:23:25.541Z,1002.16
2018-05-13T01:24:25.557Z,1002.15
2018-05-13T01:25:25.521Z,1002.13
2018-05-13T01:26:25.506Z,1002.1
2018-05-13T01:27:25.498Z,1002.11
2018-05-13T01:28:25.484Z,1002.1
2018-05-13T01:29:25.492Z,1002.05
2018-05-13T01:30:25.459Z,1002.05
2018-05-13T01:31:25.461Z,1002.06
2018-05-13T01:32:25.436Z,1002.08
2018-05-13T01:33:25.426Z,1002.07
2018-05-13T01:34:25.416Z,1002.07
2018-05-13T01:35:25.402Z,1002.07
2018-05-13T01:36:25.395Z,1002.06
2018-05-13T01:37:25.381Z,1002.07
2018-05-13T01:38:25.366Z,1002.06
2018-05-13T01:39:25.356Z,1002.07
2018-05-13T01:40:25.350Z,1002.02
2018-05-13T01:41:25.331Z,1002.05
2018-05-13T01:42:25.321Z,1002.1
2018-05-13T01:43:25.308Z,1002.1
2018-05-13T01:44:25.357Z,1002.09
2018-05-13T01:45:25.290Z,1002.1
2018-05-13T01:46:25.273Z,1002.13
2018-05-13T01:47:25.261Z,1002.15
2018-05-13T01:48:25.253Z,1002.1
2018-05-13T01:49:25.242Z,1002.1
2018-05-13T01:50:25.227Z,1002.11
2018-05-13T01:51:25.217Z,1002.12
2018-05-13T01:52:25.204Z,1002.12
2018-05-13T01:53:25.192Z,1002.13
2018-05-13T01:54:25.180Z,1002.16
2018-05-13T01:55:25.170Z,1002.13
2018-05-13T01:56:25.156Z,1002.13
2018-05-13T01:57:25.145Z,1002.11
2018-05-13T01:58:25.135Z,1002.11
2018-05-13T01:59:25.123Z,1002.11
2018-05-13T02:00:25.110Z,1002.08
2018-05-13T02:01:25.101Z,1002.1
2018-05-13T02:02:25.088Z,1002.07
2018-05-13T02:03:25.076Z,1002.04
2018-05-13T02:04:25.063Z,1002.04
2018-05-13T02:05:25.054Z,1002.07
2018-05-13T02:06:25.042Z,1002.01
2018-05-13T02:07:25.030Z,1002.01
2018-05-13T02:08:25.025Z,1001.99
2018-05-13T02:09:25.008Z,1001.97
2018-05-13T02:10:24.996Z,1001.98
2018-05-13T02:11:24.988Z,1001.99
2018-05-13T02:12:24.972Z,1001.91
2018-05-13T02:13:24.966Z,1001.92
2018-05-13T02:14:24.949Z,1001.94
2018-05-13T02:15:24.939Z,1001.95
2018-05-13T02:16:24.928Z,1001.94
2018-05-13T02:17:24.916Z,1001.92
2018-05-13T02:18:24.904Z,1001.93
2018-05-13T02:19:24.894Z,1001.91
2018-05-13T02:20:24.879Z,1001.92
2018-05-13T02:21:24.868Z,1001.9
2018-05-13T02:22:24.857Z,1001.92
2018-05-13T02:23:24.852Z,1001.92
2018-05-13T02:24:24.839Z,1001.93
2018-05-13T02:25:24.824Z,1001.94
2018-05-13T02:26:24.813Z,1001.94
2018-05-13T02:27:24.801Z,1001.93
2018-05-13T02:28:24.790Z,1001.91
2018-05-13T02:29:24.778Z,1001.92
2018-05-13T02:30:24.768Z,1001.89
2018-05-13T02:31:24.755Z,1001.89
2018-05-13T02:32:24.743Z,1001.87
2018-05-13T02:33:24.733Z,1001.83
2018-05-13T02:34:24.733Z,1001.81
2018-05-13T02:35:24.733Z,1001.86
2018-05-13T02:36:24.701Z,1001.84
2018-05-13T02:37:24.687Z,1001.81
2018-05-13T02:38:24.679Z,1001.75
2018-05-13T02:39:24.665Z,1001.75
2018-05-13T02:40:24.658Z,1001.74
2018-05-13T02:41:24.641Z,1001.75
2018-05-13T02:42:24.630Z,1001.73
2018-05-13T02:43:24.622Z,1001.74
2018-05-13T02:44:24.606Z,1001.7
2018-05-13T02:45:24.599Z,1001.68
2018-05-13T02:46:24.585Z,1001.71
2018-05-13T02:47:24.573Z,1001.68
2018-05-13T02:48:24.560Z,1001.67
2018-05-13T02:49:24.549Z,1001.67
2018-05-13T02:50:24.538Z,1001.65
2018-05-13T02:51:24.527Z,1001.66
2018-05-13T02:52:24.515Z,1001.69
2018-05-13T02:53:24.505Z,1001.64
2018-05-13T02:54:24.496Z,1001.69
2018-05-13T02:55:24.503Z,1001.65
2018-05-13T02:56:24.476Z,1001.64
2018-05-13T02:57:24.463Z,1001.63
2018-05-13T02:58:24.447Z,1001.65
2018-05-13T02:59:24.436Z,1001.65
2018-05-13T03:00:24.425Z,1001.6
2018-05-13T03:01:24.415Z,1001.59
2018-05-13T03:02:24.401Z,1001.68
2018-05-13T03:03:24.390Z,1001.65
2018-05-13T03:04:24.380Z,1001.64
2018-05-13T03:05:24.371Z,1001.66
2018-05-13T03:06:24.355Z,1001.62
2018-05-13T03:07:24.355Z,1001.63
2018-05-13T03:08:24.333Z,1001.67
2018-05-13T03:09:24.321Z,1001.66
2018-05-13T03:10:24.316Z,1001.63
2018-05-13T03:11:24.300Z,1001.58
2018-05-13T03:12:24.291Z,1001.55
2018-05-13T03:13:24.277Z,1001.58
2018-05-13T03:14:24.266Z,1001.63
2018-05-13T03:15:24.254Z,1001.59
2018-05-13T03:16:24.242Z,1001.61
2018-05-13T03:17:24.230Z,1001.63
2018-05-13T03:18:24.220Z,1001.7
2018-05-13T03:19:24.207Z,1001.74
2018-05-13T03:20:24.195Z,1001.7
2018-05-13T03:21:24.184Z,1001.74
2018-05-13T03:22:24.176Z,1001.74
2018-05-13T03:23:24.163Z,1001.75
2018-05-13T03:24:24.151Z,1001.75
2018-05-13T03:25:24.140Z,1001.79
2018-05-13T03:26:24.136Z,1001.75
2018-05-13T03:27:24.117Z,1001.71
2018-05-13T03:28:24.110Z,1001.69
2018-05-13T03:29:24.094Z,1001.74
2018-05-13T03:30:24.085Z,1001.77
2018-05-13T03:31:24.074Z,1001.81
2018-05-13T03:32:24.061Z,1001.76
2018-05-13T03:33:24.049Z,1001.79
2018-05-13T03:34:24.040Z,1001.83
2018-05-13T03:35:24.027Z,1001.75
2018-05-13T03:36:24.016Z,1001.8
2018-05-13T03:37:24.003Z,1001.84
2018-05-13T03:38:23.992Z,1001.83
2018-05-13T03:39:23.981Z,1001.79
2018-05-13T03:40:23.972Z,1001.83
2018-05-13T03:41:23.958Z,1001.9
2018-05-13T03:42:23.946Z,1001.92
2018-05-13T03:43:23.937Z,1001.92
2018-05-13T03:44:23.925Z,1001.9
2018-05-13T03:45:23.917Z,1001.87
2018-05-13T03:46:23.902Z,1001.9
2018-05-13T03:47:23.892Z,1001.9
2018-05-13T03:48:23.882Z,1001.88
2018-05-13T03:49:23.880Z,1001.84
2018-05-13T03:50:23.857Z,1001.82
2018-05-13T03:51:23.850Z,1001.86
2018-05-13T03:52:23.834Z,1001.86
2018-05-13T03:53:23.829Z,1001.87
2018-05-13T03:54:23.813Z,1001.91
2018-05-13T03:55:23.802Z,1001.86
2018-05-13T03:56:23.790Z,1001.91
2018-05-13T03:57:23.780Z,1001.88
2018-05-13T03:58:23.765Z,1001.85
2018-05-13T03:59:23.757Z,1001.89
2018-05-13T04:00:23.754Z,1001.86
2018-05-13T04:01:23.730Z,1001.88
2018-05-13T04:02:23.723Z,1001.89
2018-05-13T04:03:23.709Z,1001.91
2018-05-13T04:04:23.700Z,1001.96
2018-05-13T04:05:23.686Z,1001.9
2018-05-13T04:06:23.673Z,1001.9
2018-05-13T04:07:23.734Z,1001.88
2018-05-13T04:08:23.652Z,1001.89
2018-05-13T04:09:23.640Z,1001.93
2018-05-13T04:10:23.629Z,1001.95
2018-05-13T04:11:23.615Z,1001.95
2018-05-13T04:12:23.606Z,1001.93
2018-05-13T04:13:23.594Z,1001.92
2018-05-13T04:14:23.582Z,1001.91
2018-05-13T04:15:23.570Z,1001.9
2018-05-13T04:16:23.559Z,1001.91
2018-05-13T04:17:23.555Z,1001.98
2018-05-13T04:18:23.537Z,1001.97
2018-05-13T04:19:23.536Z,1001.97
2018-05-13T04:20:23.513Z,1002
2018-05-13T04:21:23.504Z,1001.96
2018-05-13T04:22:23.488Z,1001.95
2018-05-13T04:23:23.477Z,1002.01
2018-05-13T04:24:23.467Z,1002.03
2018-05-13T04:25:23.456Z,1002.07
2018-05-13T04:26:23.445Z,1002.07
2018-05-13T04:27:23.434Z,1002.08
2018-05-13T04:28:23.420Z,1002.15
2018-05-13T04:29:23.408Z,1002.17
2018-05-13T04:30:23.398Z,1002.26
2018-05-13T04:31:23.387Z,1002.29
2018-05-13T04:32:23.375Z,1002.28
2018-05-13T04:33:23.365Z,1002.32
2018-05-13T04:34:23.354Z,1002.37
2018-05-13T04:35:23.339Z,1002.31
2018-05-13T04:36:23.329Z,1002.34
2018-05-13T04:37:23.328Z,1002.36
2018-05-13T04:38:23.307Z,1002.37
2018-05-13T04:39:23.295Z,1002.35
2018-05-13T04:40:23.282Z,1002.34
2018-05-13T04:41:23.270Z,1002.34
2018-05-13T04:42:23.260Z,1002.37
2018-05-13T04:43:23.248Z,1002.38
2018-05-13T04:44:23.234Z,1002.38
2018-05-13T04:45:23.224Z,1002.39
2018-05-13T04:46:23.213Z,1002.36
2018-05-13T04:47:23.202Z,1002.38
2018-05-13T04:48:23.191Z,1002.43
2018-05-13T04:49:23.177Z,1002.43
2018-05-13T04:50:23.169Z,1002.44
2018-05-13T04:51:23.154Z,1002.44
2018-05-13T04:52:23.151Z,1002.48
2018-05-13T04:53:23.133Z,1002.5
2018-05-13T04:54:23.126Z,1002.51
2018-05-13T04:55:23.116Z,1002.55
2018-05-13T04:56:23.100Z,1002.53
2018-05-13T04:57:23.089Z,1002.55
2018-05-13T04:58:23.081Z,1002.56
2018-05-13T04:59:23.064Z,1002.58
2018-05-13T05:00:23.054Z,1002.59
2018-05-13T05:01:23.043Z,1002.56
2018-05-13T05:02:23.038Z,1002.61
2018-05-13T05:03:23.019Z,1002.59
2018-05-13T05:04:23.008Z,1002.51
2018-05-13T05:05:23.005Z,1002.53
2018-05-13T05:06:22.985Z,1002.5
2018-05-13T05:07:22.977Z,1002.49
2018-05-13T05:08:23.174Z,1002.47
2018-05-13T05:09:22.974Z,1002.48
2018-05-13T05:10:22.941Z,1002.49
2018-05-13T05:11:22.932Z,1002.53
2018-05-13T05:12:22.922Z,1002.53
2018-05-13T05:13:22.907Z,1002.5
2018-05-13T05:14:22.896Z,1002.54
2018-05-13T05:15:22.888Z,1002.58
2018-05-13T05:16:22.876Z,1002.56
2018-05-13T05:17:22.862Z,1002.58
2018-05-13T05:18:22.856Z,1002.64
2018-05-13T05:19:22.843Z,1002.6
2018-05-13T05:20:22.832Z,1002.59
2018-05-13T05:21:22.820Z,1002.55
2018-05-13T05:22:22.810Z,1002.62
2018-05-13T05:23:22.799Z,1002.59
2018-05-13T05:24:22.792Z,1002.58
2018-05-13T05:25:22.775Z,1002.55
2018-05-13T05:26:22.767Z,1002.5
2018-05-13T05:27:22.759Z,1002.49
2018-05-13T05:28:22.745Z,1002.47
2018-05-13T05:29:22.736Z,1002.45
2018-05-13T05:30:22.725Z,1002.45
2018-05-13T05:31:22.713Z,1002.45
2018-05-13T05:32:22.702Z,1002.41
2018-05-13T05:33:22.691Z,1002.39
2018-05-13T05:34:22.681Z,1002.43
2018-05-13T05:35:22.669Z,1002.42
2018-05-13T05:36:22.659Z,1002.46
2018-05-13T05:37:22.647Z,1002.48
2018-05-13T05:38:22.639Z,1002.48
2018-05-13T05:39:22.626Z,1002.49
2018-05-13T05:40:22.617Z,1002.5
2018-05-13T05:41:22.604Z,1002.54
2018-05-13T05:42:22.592Z,1002.51
2018-05-13T05:43:22.583Z,1002.49
2018-05-13T05:44:22.577Z,1002.52
2018-05-13T05:45:22.564Z,1002.49
2018-05-13T05:46:22.551Z,1002.5
2018-05-13T05:47:22.540Z,1002.47
2018-05-13T05:48:22.580Z,1002.48
2018-05-13T05:49:22.519Z,1002.47
2018-05-13T05:50:22.508Z,1002.43
2018-05-13T05:51:22.498Z,1002.43
2018-05-13T05:52:22.487Z,1002.43
2018-05-13T05:53:22.477Z,1002.41
2018-05-13T05:54:22.466Z,1002.43
2018-05-13T05:55:22.456Z,1002.41
2018-05-13T05:56:22.445Z,1002.47
2018-05-13T05:57:22.434Z,1002.47
2018-05-13T05:58:22.424Z,1002.47
2018-05-13T05:59:22.414Z,1002.55
2018-05-13T06:00:22.403Z,1002.52
2018-05-13T06:01:22.391Z,1002.51
2018-05-13T06:02:22.386Z,1002.53
2018-05-13T06:03:22.416Z,1002.52
2018-05-13T06:04:22.360Z,1002.54
2018-05-13T06:05:22.352Z,1002.54
2018-05-13T06:06:22.345Z,1002.57
2018-05-13T06:07:22.329Z,1002.56
2018-05-13T06:08:22.324Z,1002.57
2018-05-13T06:09:22.311Z,1002.54
2018-05-13T06:10:22.503Z,1002.54
2018-05-13T06:11:22.300Z,1002.56
2018-05-13T06:12:22.293Z,1002.52
2018-05-13T06:13:22.275Z,1002.55
2018-05-13T06:14:22.262Z,1002.57
2018-05-13T06:15:22.251Z,1002.54
2018-05-13T06:16:22.242Z,1002.58
2018-05-13T06:17:22.232Z,1002.58
2018-05-13T06:18:22.225Z,1002.6
2018-05-13T06:19:22.211Z,1002.61
2018-05-13T06:20:22.202Z,1002.6
2018-05-13T06:21:22.192Z,1002.61
2018-05-13T06:22:22.182Z,1002.6
2018-05-13T06:23:22.173Z,1002.62
2018-05-13T06:24:22.162Z,1002.63
2018-05-13T06:25:22.155Z,1002.6
2018-05-13T06:26:22.143Z,1002.6
2018-05-13T06:27:22.135Z,1002.57
2018-05-13T06:28:22.124Z,1002.54
2018-05-13T06:29:22.114Z,1002.55
2018-05-13T06:30:22.103Z,1002.52
2018-05-13T06:31:22.096Z,1002.5
2018-05-13T06:32:22.086Z,1002.51
2018-05-13T06:33:22.077Z,1002.52
2018-05-13T06:34:22.071Z,1002.51
2018-05-13T06:35:22.060Z,1002.42
2018-05-13T06:36:22.053Z,1002.42
2018-05-13T06:37:22.039Z,1002.4
2018-05-13T06:38:22.048Z,1002.35
2018-05-13T06:39:22.020Z,1002.32
2018-05-13T06:40:22.011Z,1002.31
2018-05-13T06:41:22.002Z,1002.31
2018-05-13T06:42:21.995Z,1002.32
2018-05-13T06:43:21.988Z,1002.37
2018-05-13T06:44:21.976Z,1002.31
2018-05-13T06:45:22.063Z,1002.35
2018-05-13T06:46:21.956Z,1002.36
2018-05-13T06:47:21.947Z,1002.39
2018-05-13T06:48:21.942Z,1002.34
2018-05-13T06:49:21.941Z,1002.4
2018-05-13T06:50:21.920Z,1002.42
2018-05-13T06:51:22.074Z,1002.4
2018-05-13T06:52:21.904Z,1002.43
2018-05-13T06:53:21.895Z,1002.46
2018-05-13T06:54:21.887Z,1002.41
2018-05-13T06:55:21.876Z,1002.43
2018-05-13T06:56:21.871Z,1002.5
2018-05-13T06:57:21.918Z,1002.46
2018-05-13T06:58:21.850Z,1002.48
2018-05-13T06:59:21.840Z,1002.53
2018-05-13T07:00:21.834Z,1002.49
2018-05-13T07:01:21.826Z,1002.51
2018-05-13T07:02:21.817Z,1002.53
2018-05-13T07:03:21.806Z,1002.5
2018-05-13T07:04:21.803Z,1002.51
2018-05-13T07:05:21.789Z,1002.51
2018-05-13T07:06:21.790Z,1002.48
2018-05-13T07:07:21.771Z,1002.48
2018-05-13T07:08:21.766Z,1002.46
2018-05-13T07:09:21.771Z,1002.44
2018-05-13T07:10:21.756Z,1002.45
2018-05-13T07:11:21.748Z,1002.41
2018-05-13T07:12:21.748Z,1002.43
2018-05-13T07:13:21.721Z,1002.39
2018-05-13T07:14:21.709Z,1002.38
2018-05-13T07:15:21.700Z,1002.43
2018-05-13T07:16:21.750Z,1002.39
2018-05-13T07:17:21.685Z,1002.49
2018-05-13T07:18:21.680Z,1002.46
2018-05-13T07:19:21.673Z,1002.51
2018-05-13T07:20:21.666Z,1002.49
2018-05-13T07:21:21.651Z,1002.49
2018-05-13T07:22:21.644Z,1002.49
2018-05-13T07:23:21.635Z,1002.49
2018-05-13T07:24:21.623Z,1002.59
2018-05-13T07:25:21.614Z,1002.71
2018-05-13T07:26:21.606Z,1002.71
2018-05-13T07:27:21.597Z,1002.68
2018-05-13T07:28:21.589Z,1002.65
2018-05-13T07:29:21.582Z,1002.68
2018-05-13T07:30:21.573Z,1002.65
2018-05-13T07:31:21.567Z,1002.65
2018-05-13T07:32:21.559Z,1002.66
2018-05-13T07:33:21.553Z,1002.73
2018-05-13T07:34:21.547Z,1002.66
2018-05-13T07:35:21.541Z,1002.73
2018-05-13T07:36:21.534Z,1002.75
2018-05-13T07:37:21.529Z,1002.75
2018-05-13T07:38:21.523Z,1002.81
2018-05-13T07:39:21.518Z,1002.83
2018-05-13T07:40:21.513Z,1002.86
2018-05-13T07:41:21.512Z,1002.84
2018-05-13T07:42:21.505Z,1002.89
2018-05-13T07:43:21.576Z,1002.98
2018-05-13T07:44:21.494Z,1002.96
2018-05-13T07:45:21.486Z,1002.95
2018-05-13T07:46:21.482Z,1003
2018-05-13T07:47:21.479Z,1002.95
2018-05-13T07:48:21.474Z,1002.98
2018-05-13T07:49:21.469Z,1002.93
2018-05-13T07:50:21.465Z,1002.95
2018-05-13T07:51:21.461Z,1002.92
2018-05-13T07:52:21.457Z,1002.96
2018-05-13T07:53:21.457Z,1002.94
2018-05-13T07:54:21.451Z,1002.98
2018-05-13T07:55:21.449Z,1002.92
2018-05-13T07:56:21.447Z,1002.96
2018-05-13T07:57:21.440Z,1002.94
2018-05-13T07:58:21.436Z,1002.92
2018-05-13T07:59:21.434Z,1002.94
2018-05-13T08:00:21.432Z,1002.98
2018-05-13T08:01:21.427Z,1002.91
2018-05-13T08:02:21.427Z,1002.89
2018-05-13T08:03:21.428Z,1002.9
2018-05-13T08:04:21.421Z,1002.97
2018-05-13T08:05:21.416Z,1002.96
2018-05-13T08:06:21.415Z,1002.93
2018-05-13T08:07:21.412Z,1002.96
2018-05-13T08:08:21.410Z,1002.92
2018-05-13T08:09:21.410Z,1002.89
2018-05-13T08:10:21.409Z,1002.92
2018-05-13T08:11:21.404Z,1002.87
2018-05-13T08:12:21.401Z,1002.89
2018-05-13T08:13:21.405Z,1002.94
2018-05-13T08:14:21.399Z,1002.98
2018-05-13T08:15:21.400Z,1003
2018-05-13T08:16:21.398Z,1003.07
2018-05-13T08:17:21.393Z,1003.01
2018-05-13T08:18:21.393Z,1003.02
2018-05-13T08:19:21.394Z,1003.04
2018-05-13T08:20:21.483Z,1003
2018-05-13T08:21:21.390Z,1002.89
2018-05-13T08:22:21.391Z,1002.88
2018-05-13T08:23:21.386Z,1002.87
2018-05-13T08:24:21.387Z,1002.86
2018-05-13T08:25:21.385Z,1002.9
2018-05-13T08:26:21.383Z,1002.84
2018-05-13T08:27:21.380Z,1002.86
2018-05-13T08:28:21.379Z,1002.95
2018-05-13T08:29:21.380Z,1002.9
2018-05-13T08:30:21.376Z,1002.89
2018-05-13T08:31:21.375Z,1002.98
2018-05-13T08:32:21.374Z,1002.89
2018-05-13T08:33:21.372Z,1002.8
2018-05-13T08:34:21.369Z,1002.77
2018-05-13T08:35:21.367Z,1002.71
2018-05-13T08:36:21.366Z,1002.71
2018-05-13T08:37:21.367Z,1002.74
2018-05-13T08:38:21.362Z,1002.72
2018-05-13T08:39:21.356Z,1002.75
2018-05-13T08:40:21.559Z,1002.68
2018-05-13T08:41:21.353Z,1002.63
2018-05-13T08:42:21.351Z,1002.62
2018-05-13T08:43:21.345Z,1002.59
2018-05-13T08:44:21.343Z,1002.59
2018-05-13T08:45:21.337Z,1002.57
2018-05-13T08:46:21.333Z,1002.56
2018-05-13T08:47:21.332Z,1002.57
2018-05-13T08:48:21.328Z,1002.59
2018-05-13T08:49:21.323Z,1002.54
2018-05-13T08:50:21.321Z,1002.59
2018-05-13T08:51:21.317Z,1002.54
2018-05-13T08:52:21.313Z,1002.54
2018-05-13T08:53:21.313Z,1002.55
2018-05-13T08:54:21.309Z,1002.59
2018-05-13T08:55:21.302Z,1002.57
2018-05-13T08:56:21.300Z,1002.55
2018-05-13T08:57:21.293Z,1002.57
2018-05-13T08:58:21.289Z,1002.58
2018-05-13T08:59:21.287Z,1002.56
2018-05-13T09:00:21.282Z,1002.53
2018-05-13T09:01:21.276Z,1002.54
2018-05-13T09:02:21.275Z,1002.53
2018-05-13T09:03:21.270Z,1002.53
2018-05-13T09:04:21.265Z,1002.52
2018-05-13T09:05:21.262Z,1002.57
2018-05-13T09:06:21.258Z,1002.52
2018-05-13T09:07:21.251Z,1002.5
2018-05-13T09:08:21.274Z,1002.53
2018-05-13T09:09:21.242Z,1002.56
2018-05-13T09:10:21.237Z,1002.57
2018-05-13T09:11:21.233Z,1002.57
2018-05-13T09:12:21.228Z,1002.52
2018-05-13T09:13:21.435Z,1002.55
2018-05-13T09:14:21.302Z,1002.54
2018-05-13T09:15:21.217Z,1002.55
2018-05-13T09:16:21.217Z,1002.57
2018-05-13T09:17:21.208Z,1002.56
2018-05-13T09:18:21.200Z,1002.57
2018-05-13T09:19:21.201Z,1002.56
2018-05-13T09:20:21.194Z,1002.59
2018-05-13T09:21:21.188Z,1002.6
2018-05-13T09:22:21.179Z,1002.55
2018-05-13T09:23:21.181Z,1002.54
2018-05-13T09:24:21.168Z,1002.52
2018-05-13T09:25:21.163Z,1002.49
2018-05-13T09:26:21.161Z,1002.47
2018-05-13T09:27:21.159Z,1002.47
2018-05-13T09:28:21.151Z,1002.44
2018-05-13T09:29:21.145Z,1002.4
2018-05-13T09:30:21.142Z,1002.4
2018-05-13T09:31:21.340Z,1002.41
2018-05-13T09:32:21.130Z,1002.29
2018-05-13T09:33:21.131Z,1002.38
2018-05-13T09:34:21.120Z,1002.37
2018-05-13T09:35:21.124Z,1002.37
2018-05-13T09:36:21.172Z,1002.35
2018-05-13T09:37:21.105Z,1002.41
2018-05-13T09:38:21.100Z,1002.32
2018-05-13T09:39:21.121Z,1002.35
2018-05-13T09:40:21.095Z,1002.35
2018-05-13T09:41:21.098Z,1002.31
2018-05-13T09:42:21.078Z,1002.29
2018-05-13T09:43:21.074Z,1002.19
2018-05-13T09:44:21.067Z,1002.26
2018-05-13T09:45:21.061Z,1002.22
2018-05-13T09:46:21.058Z,1002.16
2018-05-13T09:47:21.052Z,1002.18
2018-05-13T09:48:21.070Z,1002.19
2018-05-13T09:49:21.045Z,1002.18
2018-05-13T09:50:21.045Z,1002.22
2018-05-13T09:51:21.073Z,1002.21
2018-05-13T09:52:21.028Z,1002.21
2018-05-13T09:53:21.021Z,1002.17
2018-05-13T09:54:21.033Z,1002.17
2018-05-13T09:55:21.010Z,1002.19
2018-05-13T09:56:21.008Z,1002.22
2018-05-13T09:57:21.008Z,1002.19
2018-05-13T09:58:20.999Z,1002.24
2018-05-13T09:59:20.993Z,1002.16
2018-05-13T10:00:20.990Z,1002.15
2018-05-13T10:01:20.982Z,1002.11
2018-05-13T10:02:20.976Z,1002.15
2018-05-13T10:03:20.971Z,1002.1
2018-05-13T10:04:20.978Z,1002.06
2018-05-13T10:05:20.960Z,1002.08
2018-05-13T10:06:20.955Z,1002.1
2018-05-13T10:07:20.947Z,1002.1
2018-05-13T10:08:20.945Z,1002.02
2018-05-13T10:09:20.937Z,1002.09
2018-05-13T10:10:20.933Z,1002.04
2018-05-13T10:11:20.930Z,1002.05
2018-05-13T10:12:20.923Z,1002.04
2018-05-13T10:13:20.916Z,1002.11
2018-05-13T10:14:20.914Z,1002.2
2018-05-13T10:15:20.908Z,1002.19
2018-05-13T10:16:20.903Z,1002.16
2018-05-13T10:17:20.901Z,1002.13
2018-05-13T10:18:20.926Z,1002.27
2018-05-13T10:19:20.897Z,1002.48
2018-05-13T10:20:20.892Z,1002.47
2018-05-13T10:21:20.886Z,1002.47
2018-05-13T10:22:20.883Z,1002.44
2018-05-13T10:23:20.876Z,1002.42
2018-05-13T10:24:20.876Z,1002.39
2018-05-13T10:25:20.870Z,1002.4
2018-05-13T10:26:20.868Z,1002.37
2018-05-13T10:27:20.949Z,1002.34
2018-05-13T10:28:20.868Z,1002.34
2018-05-13T10:29:20.867Z,1002.36
2018-05-13T10:30:20.861Z,1002.32
2018-05-13T10:31:20.861Z,1002.14
2018-05-13T10:32:20.857Z,1002.02
2018-05-13T10:33:20.859Z,1002.24
2018-05-13T10:34:20.857Z,1002.28
2018-05-13T10:35:20.858Z,1002.3
2018-05-13T10:36:20.957Z,1002.35
2018-05-13T10:37:21.067Z,1002.3
2018-05-13T10:38:20.859Z,1002.21
2018-05-13T10:39:20.863Z,1002.18
2018-05-13T10:40:20.863Z,1002.14
2018-05-13T10:41:20.858Z,1002.21
2018-05-13T10:42:20.870Z,1002.12
2018-05-13T10:43:20.859Z,1002.11
2018-05-13T10:44:20.864Z,1002.12
2018-05-13T10:45:20.859Z,1002.07
2018-05-13T10:46:20.857Z,1002.11
2018-05-13T10:47:20.864Z,1002.14
2018-05-13T10:48:20.859Z,1002.1
2018-05-13T10:49:20.859Z,1002.11
2018-05-13T10:50:20.857Z,1002.08
2018-05-13T10:51:20.853Z,1002.16
2018-05-13T10:52:20.852Z,1002.17
2018-05-13T10:53:20.862Z,1002.15
2018-05-13T10:54:20.850Z,1002.16
2018-05-13T10:55:20.852Z,1002.22
2018-05-13T10:56:20.846Z,1002.23
2018-05-13T10:57:20.843Z,1002.24
2018-05-13T10:58:20.848Z,1002.24
2018-05-13T10:59:20.852Z,1002.22
2018-05-13T11:00:20.845Z,1002.23
2018-05-13T11:01:20.839Z,1002.21
2018-05-13T11:02:20.831Z,1002.33
2018-05-13T11:03:20.830Z,1002.3
2018-05-13T11:04:20.825Z,1002.34
2018-05-13T11:05:20.823Z,1002.38
2018-05-13T11:06:20.831Z,1002.28
2018-05-13T11:07:20.827Z,1002.23
2018-05-13T11:08:20.815Z,1002.2
2018-05-13T11:09:20.817Z,1002.23
2018-05-13T11:10:20.840Z,1002.19
2018-05-13T11:11:20.806Z,1002.28
2018-05-13T11:12:20.809Z,1002.33
2018-05-13T11:13:20.810Z,1002.3
2018-05-13T11:14:20.828Z,1002.39
2018-05-13T11:15:20.791Z,1002.39
2018-05-13T11:16:20.786Z,1002.45
2018-05-13T11:17:20.797Z,1002.38
2018-05-13T11:18:20.783Z,1002.41
2018-05-13T11:19:20.778Z,1002.48
2018-05-13T11:20:20.782Z,1002.44
2018-05-13T11:21:20.786Z,1002.54
2018-05-13T11:22:20.781Z,1002.43
2018-05-13T11:23:20.758Z,1002.38
2018-05-13T11:24:20.754Z,1002.39
2018-05-13T11:25:20.750Z,1002.42
2018-05-13T11:26:20.745Z,1002.49
2018-05-13T11:27:20.743Z,1002.48
2018-05-13T11:28:20.736Z,1002.49
2018-05-13T11:29:20.731Z,1002.48
2018-05-13T11:30:20.722Z,1002.44
2018-05-13T11:31:20.719Z,1002.49
2018-05-13T11:32:20.713Z,1002.41
2018-05-13T11:33:20.711Z,1002.39
2018-05-13T11:34:20.712Z,1002.41
2018-05-13T11:35:20.701Z,1002.42
2018-05-13T11:36:20.695Z,1002.46
2018-05-13T11:37:20.687Z,1002.39
2018-05-13T11:38:20.685Z,1002.4
2018-05-13T11:39:20.678Z,1002.36
2018-05-13T11:40:20.679Z,1002.33
2018-05-13T11:41:20.718Z,1002.3
2018-05-13T11:42:20.663Z,1002.32
2018-05-13T11:43:20.657Z,1002.29
2018-05-13T11:44:20.656Z,1002.37
2018-05-13T11:45:20.647Z,1002.37
2018-05-13T11:46:20.643Z,1002.37
2018-05-13T11:47:20.639Z,1002.34
2018-05-13T11:48:20.630Z,1002.32
2018-05-13T11:49:20.626Z,1002.39
2018-05-13T11:50:20.626Z,1002.33
2018-05-13T11:51:20.617Z,1002.35
2018-05-13T11:52:20.613Z,1002.4
2018-05-13T11:53:20.608Z,1002.39
2018-05-13T11:54:20.601Z,1002.46
2018-05-13T11:55:20.596Z,1002.44
2018-05-13T11:56:20.590Z,1002.45
2018-05-13T11:57:20.585Z,1002.49
2018-05-13T11:58:20.590Z,1002.52
2018-05-13T11:59:20.578Z,1002.59
2018-05-13T12:00:20.577Z,1002.58
2018-05-13T12:01:20.568Z,1002.65
2018-05-13T12:02:20.602Z,1002.57
2018-05-13T12:03:20.557Z,1002.6
2018-05-13T12:04:20.549Z,1002.57
2018-05-13T12:05:20.545Z,1002.54
2018-05-13T12:06:20.541Z,1002.56
2018-05-13T12:07:20.535Z,1002.59
2018-05-13T12:08:20.531Z,1002.58